Time;durP1;ratioP1;P1;durP2;ratioP2;P2;SDS_P1;SDS_P2;PMS_P1;PMS_P2;Temp;Humidity;BMP_temperature;BMP_pressure;BME280_temperature;BME280_humidity;BME280_pressure;Samples;Min_cycle;Max_cycle;Signal;HPM_P1;HPM_P2
2023/01/22 00:01:17;;;;;;;27.80;14.95;;;;;;;-3.18;100.00;103193.56;5079163;28;20383;-47
2023/01/22 00:03:47;;;;;;;24.83;14.32;;;;;;;-3.21;100.00;103187.50;5086034;28;20036;-49
2023/01/22 00:06:16;;;;;;;28.30;15.05;;;;;;;-3.13;100.00;103192.03;5086194;28;20032;-51
2023/01/22 00:08:45;;;;;;;25.88;13.98;;;;;;;-3.18;100.00;103192.72;5082988;28;20560;-50
2023/01/22 00:11:14;;;;;;;24.60;14.60;;;;;;;-3.25;100.00;103192.53;5079739;28;20079;-48
2023/01/22 00:13:42;;;;;;;24.58;14.00;;;;;;;-3.25;100.00;103201.97;5079637;28;20045;-48
2023/01/22 00:16:12;;;;;;;28.63;14.57;;;;;;;-3.28;100.00;103192.44;5081175;28;20035;-47
2023/01/22 00:18:42;;;;;;;26.55;15.32;;;;;;;-3.23;100.00;103182.28;5078998;28;20403;-49
2023/01/22 00:21:12;;;;;;;26.30;14.68;;;;;;;-3.26;100.00;103179.59;5080279;28;20052;-47
2023/01/22 00:23:40;;;;;;;28.48;14.75;;;;;;;-3.26;100.00;103185.66;5079066;28;20071;-50
2023/01/22 00:26:11;;;;;;;30.00;16.38;;;;;;;-3.16;100.00;103183.31;5080380;28;20380;-51
2023/01/22 00:28:41;;;;;;;31.70;15.50;;;;;;;-3.06;100.00;103181.06;5085615;28;20056;-48
2023/01/22 00:31:11;;;;;;;28.33;14.80;;;;;;;-2.99;100.00;103173.53;5074241;28;20044;-50
2023/01/22 00:33:41;;;;;;;27.05;14.85;;;;;;;-2.98;100.00;103176.16;5075395;28;20134;-48
2023/01/22 00:36:11;;;;;;;30.13;16.33;;;;;;;-2.99;100.00;103169.25;5081694;28;20059;-51
2023/01/22 00:38:39;;;;;;;27.02;15.88;;;;;;;-2.84;100.00;103165.38;5081884;28;20044;-49
2023/01/22 00:41:09;;;;;;;30.42;15.15;;;;;;;-2.72;100.00;103153.69;5082342;28;20101;-51
2023/01/22 00:43:38;;;;;;;29.20;15.27;;;;;;;-2.78;100.00;103163.84;5076742;28;20050;-49
2023/01/22 00:46:07;;;;;;;25.08;13.70;;;;;;;-2.77;100.00;103164.69;5079345;28;20039;-51
2023/01/22 00:48:35;;;;;;;27.58;14.85;;;;;;;-2.80;100.00;103164.63;5082160;28;20050;-50
2023/01/22 00:51:07;;;;;;;23.13;13.63;;;;;;;-2.60;100.00;103160.00;5083451;28;20040;-51
2023/01/22 00:53:36;;;;;;;26.42;14.52;;;;;;;-2.66;100.00;103157.25;5080422;28;20089;-50
2023/01/22 00:56:04;;;;;;;28.88;14.55;;;;;;;-2.68;100.00;103166.66;5078563;28;20104;-51
2023/01/22 00:58:33;;;;;;;26.45;14.15;;;;;;;-2.53;100.00;103161.91;5085239;28;20097;-49
2023/01/22 01:01:02;;;;;;;25.08;13.93;;;;;;;-2.44;100.00;103159.59;5084550;28;20082;-53
2023/01/22 01:03:30;;;;;;;23.52;13.80;;;;;;;-2.50;100.00;103169.72;5080253;28;20074;-50
2023/01/22 01:06:02;;;;;;;23.95;12.75;;;;;;;-2.51;100.00;103165.38;5077812;28;20097;-51
2023/01/22 01:08:34;;;;;;;24.80;12.63;;;;;;;-2.45;100.00;103159.56;5094460;28;20054;-50
2023/01/22 01:11:06;;;;;;;30.58;13.25;;;;;;;-2.42;100.00;103157.03;5094077;28;20510;-50
2023/01/22 01:13:37;;;;;;;27.80;12.80;;;;;;;-2.40;100.00;103160.50;5094727;28;20054;-51
2023/01/22 01:16:08;;;;;;;20.77;12.27;;;;;;;-2.33;100.00;103157.28;5092996;28;20511;-51
2023/01/22 01:18:37;;;;;;;24.83;13.25;;;;;;;-2.34;100.00;103158.13;5073500;28;20094;-54
2023/01/22 01:21:06;;;;;;;25.50;12.45;;;;;;;-2.23;100.00;103151.50;5073371;28;20079;-50
2023/01/22 01:23:36;;;;;;;25.02;13.27;;;;;;;-2.22;100.00;103147.25;5074672;28;20044;-49
2023/01/22 01:26:06;;;;;;;25.55;12.32;;;;;;;-2.24;100.00;103152.34;5075910;28;20036;-49
2023/01/22 01:28:36;;;;;;;22.50;13.60;;;;;;;-2.21;100.00;103157.59;5073946;28;20495;-50
2023/01/22 01:31:05;;;;;;;24.60;12.90;;;;;;;-2.20;100.00;103161.03;5072578;28;20471;-51
2023/01/22 01:33:34;;;;;;;22.92;12.45;;;;;;;-2.07;100.00;103162.22;5073706;28;20109;-51
2023/01/22 01:36:04;;;;;;;22.88;11.68;;;;;;;-2.12;100.00;103161.25;5073243;28;20059;-49
2023/01/22 01:38:33;;;;;;;25.63;13.45;;;;;;;-2.12;100.00;103154.34;5070810;28;20399;-49
2023/01/22 01:41:02;;;;;;;23.60;12.35;;;;;;;-2.12;100.00;103159.50;5071471;28;20044;-49
2023/01/22 01:43:30;;;;;;;26.83;13.30;;;;;;;-2.00;100.00;103150.31;5084657;28;20130;-52
2023/01/22 01:46:00;;;;;;;25.83;13.27;;;;;;;-2.07;100.00;103149.34;5093636;28;20541;-50
2023/01/22 01:48:35;;;;;;;26.50;14.02;;;;;;;-2.06;100.00;103151.06;5074652;28;20557;-51
2023/01/22 01:51:08;;;;;;;25.17;13.45;;;;;;;-2.10;100.00;103163.03;5073794;28;20382;-52
2023/01/22 01:53:38;;;;;;;23.92;12.95;;;;;;;-2.11;100.00;103153.53;5073744;28;20040;-51
2023/01/22 01:56:12;;;;;;;25.05;13.75;;;;;;;-2.11;100.00;103152.69;5073092;28;20045;-49
2023/01/22 01:58:42;;;;;;;26.02;13.25;;;;;;;-2.08;100.00;103152.75;5073589;28;20075;-49
2023/01/22 02:01:13;;;;;;;24.00;12.63;;;;;;;-2.10;100.00;103146.66;5074489;28;20048;-48
2023/01/22 02:03:41;;;;;;;22.75;12.13;;;;;;;-2.11;100.00;103139.78;5087290;28;20048;-50
2023/01/22 02:06:11;;;;;;;21.95;12.15;;;;;;;-2.13;100.00;103136.28;5088945;28;20673;-51
2023/01/22 02:08:40;;;;;;;26.42;13.77;;;;;;;-2.14;100.00;103145.72;5075635;28;20123;-49
2023/01/22 02:11:10;;;;;;;24.42;13.23;;;;;;;-2.10;100.00;103136.34;5073102;28;20048;-52
2023/01/22 02:13:44;;;;;;;23.33;12.30;;;;;;;-2.10;100.00;103133.75;5089385;28;20056;-49
2023/01/22 02:16:12;;;;;;;22.67;12.55;;;;;;;-2.00;100.00;103142.59;5092885;28;20040;-50
2023/01/22 02:18:40;;;;;;;23.20;12.88;;;;;;;-1.95;100.00;103141.88;5072835;28;20049;-50
2023/01/22 02:21:28;;;;;;;23.40;12.63;;;;;;;-2.00;100.00;103140.91;5070050;28;20105;-49
2023/01/22 02:23:56;;;;;;;27.08;13.60;;;;;;;-1.94;100.00;103133.28;5068025;28;20055;-48
2023/01/22 02:26:25;;;;;;;24.90;12.60;;;;;;;-1.81;100.00;103139.63;5071956;28;20036;-51
2023/01/22 02:28:53;;;;;;;24.23;12.68;;;;;;;-1.80;100.00;103132.75;5070240;28;20074;-52
2023/01/22 02:31:21;;;;;;;25.33;14.25;;;;;;;-1.80;100.00;103120.75;5067586;28;20083;-51
2023/01/22 02:33:49;;;;;;;25.30;13.95;;;;;;;-1.72;100.00;103131.22;5086618;28;20048;-51
2023/01/22 02:36:18;;;;;;;28.45;15.13;;;;;;;-1.76;100.00;103126.81;5092614;28;20471;-50
2023/01/22 02:38:47;;;;;;;29.23;14.60;;;;;;;-1.75;100.00;103126.00;5079763;28;20143;-49
2023/01/22 02:41:15;;;;;;;27.55;13.43;;;;;;;-1.77;100.00;103132.81;5072476;28;20048;-52
2023/01/22 02:43:43;;;;;;;24.42;13.10;;;;;;;-1.78;100.00;103131.09;5083483;28;20071;-50
2023/01/22 02:46:12;;;;;;;24.80;12.38;;;;;;;-1.78;100.00;103137.09;5092542;28;20052;-49
2023/01/22 02:48:40;;;;;;;26.05;13.13;;;;;;;-1.70;100.00;103147.63;5090963;28;20060;-48
2023/01/22 02:51:08;;;;;;;25.05;13.93;;;;;;;-1.74;100.00;103159.56;5090938;28;20059;-52
2023/01/22 02:53:36;;;;;;;24.17;13.45;;;;;;;-1.68;100.00;103152.81;5083350;28;20045;-51
2023/01/22 02:56:07;;;;;;;25.73;12.90;;;;;;;-1.77;100.00;103149.19;5070017;28;20155;-51
2023/01/22 02:58:36;;;;;;;22.55;12.50;;;;;;;-1.80;100.00;103145.66;5076952;28;20044;-51
2023/01/22 03:01:19;;;;;;;24.08;13.10;;;;;;;-1.83;100.00;103132.69;5091835;28;20048;-48
2023/01/22 03:03:48;;;;;;;24.52;12.60;;;;;;;-1.88;100.00;103137.75;5081342;28;20541;-52
2023/01/22 03:06:20;;;;;;;23.30;12.77;;;;;;;-1.90;100.00;103136.81;5092274;28;20513;-51
2023/01/22 03:08:49;;;;;;;24.92;13.48;;;;;;;-1.94;100.00;103135.88;5092097;28;20101;-49
2023/01/22 03:11:18;;;;;;;21.38;12.00;;;;;;;-1.95;100.00;103141.88;5092253;28;20123;-51
2023/01/22 03:22:07;;;;;;;24.02;12.40;;;;;;;-1.91;100.00;103132.50;5088073;28;20414;-49
2023/01/22 03:24:35;;;;;;;24.73;12.82;;;;;;;-1.95;100.00;103126.41;5088786;28;20051;-52
2023/01/22 03:27:05;;;;;;;21.38;11.93;;;;;;;-1.90;100.00;103127.38;5092259;28;20043;-48
2023/01/22 03:29:37;;;;;;;24.60;12.43;;;;;;;-1.90;100.00;103127.38;5092110;28;20119;-48
2023/01/22 03:32:06;;;;;;;25.50;12.80;;;;;;;-1.91;100.00;103117.00;5092312;28;20498;-49
2023/01/22 03:34:34;;;;;;;24.23;13.13;;;;;;;-1.92;100.00;103126.47;5072189;28;20072;-47
2023/01/22 03:37:03;;;;;;;21.75;12.02;;;;;;;-1.93;100.00;103111.81;5070756;28;20055;-48
2023/01/22 03:39:32;;;;;;;22.10;11.80;;;;;;;-1.90;100.00;103116.19;5071756;28;20119;-51
2023/01/22 03:42:00;;;;;;;24.02;12.88;;;;;;;-1.85;100.00;103111.13;5071866;28;20048;-48
2023/01/22 03:44:30;;;;;;;26.52;12.50;;;;;;;-1.89;100.00;103117.94;5075154;28;20044;-48
2023/01/22 03:46:58;;;;;;;24.25;13.02;;;;;;;-1.83;100.00;103122.38;5067678;28;20352;-50
2023/01/22 03:49:26;;;;;;;23.90;12.40;;;;;;;-1.79;100.00;103111.28;5071571;28;20055;-52
2023/01/22 03:51:54;;;;;;;25.30;13.05;;;;;;;-1.82;100.00;103111.22;5071662;28;20048;-49
2023/01/22 03:54:22;;;;;;;23.83;13.35;;;;;;;-1.84;100.00;103113.75;5073775;28;20041;-50
2023/01/22 03:56:50;;;;;;;23.58;12.85;;;;;;;-1.78;100.00;103111.31;5075416;28;20045;-48
2023/01/22 03:59:19;;;;;;;25.05;12.30;;;;;;;-1.81;100.00;103120.69;5071896;28;20146;-48
2023/01/22 04:01:49;;;;;;;22.35;12.65;;;;;;;-1.84;100.00;103115.44;5071676;28;20123;-49
2023/01/22 04:04:17;;;;;;;21.55;12.50;;;;;;;-1.82;100.00;103118.97;5085518;28;20071;-48
2023/01/22 04:06:45;;;;;;;22.23;12.88;;;;;;;-1.80;100.00;103123.31;5095414;28;20119;-51
2023/01/22 04:09:14;;;;;;;21.08;11.70;;;;;;;-1.83;100.00;103123.22;5094841;28;20040;-51
2023/01/22 04:11:42;;;;;;;22.30;12.05;;;;;;;-1.85;100.00;103117.19;5094111;28;20487;-48
2023/01/22 04:14:10;;;;;;;23.77;13.52;;;;;;;-1.85;100.00;103122.34;5092896;28;20040;-51
2023/01/22 04:16:38;;;;;;;24.45;13.57;;;;;;;-1.87;100.00;103124.88;5071110;28;20090;-50
2023/01/22 04:19:09;;;;;;;23.63;12.60;;;;;;;-1.85;100.00;103124.91;5071992;28;20478;-48
2023/01/22 04:21:37;;;;;;;21.65;12.50;;;;;;;-1.83;100.00;103122.38;5072883;28;20426;-49
2023/01/22 04:24:06;;;;;;;24.42;13.10;;;;;;;-1.83;100.00;103109.47;5070588;28;20087;-51
2023/01/22 04:26:34;;;;;;;23.77;12.82;;;;;;;-1.81;100.00;103108.66;5091903;28;20055;-48
2023/01/22 04:29:02;;;;;;;22.67;13.77;;;;;;;-1.82;100.00;103109.50;5092072;28;20043;-49
2023/01/22 04:31:30;;;;;;;23.08;12.73;;;;;;;-1.82;100.00;103112.06;5092373;28;20103;-48
2023/01/22 04:33:58;;;;;;;24.33;13.35;;;;;;;-1.81;100.00;103100.03;5095336;28;20145;-47
2023/01/22 04:36:28;;;;;;;23.23;12.65;;;;;;;-1.81;100.00;103106.09;5094632;28;20078;-48
2023/01/22 04:38:56;;;;;;;23.95;13.73;;;;;;;-1.78;100.00;103094.97;5095098;28;20164;-47
2023/01/22 04:41:24;;;;;;;23.15;13.73;;;;;;;-1.76;100.00;103103.59;5080555;28;20112;-50
2023/01/22 04:43:52;;;;;;;24.65;13.73;;;;;;;-1.78;100.00;103100.13;5074674;28;20052;-51
2023/01/22 04:46:20;;;;;;;24.70;13.35;;;;;;;-1.74;100.00;103101.94;5080395;28;20122;-52
2023/01/22 04:48:49;;;;;;;23.67;13.07;;;;;;;-1.75;100.00;103102.78;5070090;28;20048;-52
2023/01/22 04:51:17;;;;;;;25.10;13.77;;;;;;;-1.77;100.00;103101.84;5072855;28;20082;-52
2023/01/22 04:53:47;;;;;;;25.88;13.70;;;;;;;-1.77;100.00;103102.75;5071633;28;20082;-53
2023/01/22 04:56:17;;;;;;;22.25;12.95;;;;;;;-1.74;100.00;103113.13;5081915;28;20068;-50
2023/01/22 04:58:48;;;;;;;25.65;14.95;;;;;;;-1.73;100.00;103108.84;5094535;28;20136;-49
2023/01/22 05:01:16;;;;;;;26.60;14.75;;;;;;;-1.72;100.00;103108.88;5094489;28;20364;-53
2023/01/22 05:03:44;;;;;;;26.17;14.02;;;;;;;-1.74;100.00;103104.53;5086979;28;20048;-51
2023/01/22 05:06:13;;;;;;;24.98;14.05;;;;;;;-1.68;100.00;103101.19;5070440;28;20060;-48
2023/01/22 05:08:41;;;;;;;24.90;13.98;;;;;;;-1.69;100.00;103108.09;5071659;28;20048;-49
2023/01/22 05:11:10;;;;;;;25.77;14.13;;;;;;;-1.71;100.00;103102.00;5082330;28;20097;-52
2023/01/22 05:13:38;;;;;;;25.13;14.25;;;;;;;-1.66;100.00;103100.41;5094658;28;20084;-48
2023/01/22 05:16:07;;;;;;;24.67;13.18;;;;;;;-1.70;100.00;103090.84;5082677;28;20119;-50
2023/01/22 05:18:35;;;;;;;26.50;15.13;;;;;;;-1.70;100.00;103096.88;5088140;28;20115;-47
2023/01/22 05:21:03;;;;;;;21.80;13.40;;;;;;;-1.68;100.00;103107.22;5094122;28;20043;-48
2023/01/22 05:23:32;;;;;;;24.52;13.23;;;;;;;-1.68;100.00;103111.53;5094366;28;20498;-51
2023/01/22 05:26:00;;;;;;;26.55;12.77;;;;;;;-1.64;100.00;103114.19;5087607;28;20052;-51
2023/01/22 05:28:29;;;;;;;22.58;12.88;;;;;;;-1.66;100.00;103115.88;5074019;28;20131;-49
2023/01/22 05:30:57;;;;;;;23.75;14.07;;;;;;;-1.60;100.00;103123.75;5073643;28;20124;-48
2023/01/22 05:33:28;;;;;;;21.88;12.13;;;;;;;-1.64;100.00;103119.34;5073745;28;20506;-47
2023/01/22 05:35:57;;;;;;;25.17;13.18;;;;;;;-1.58;100.00;103124.66;5073749;28;20047;-47
2023/01/22 05:38:25;;;;;;;25.25;13.23;;;;;;;-1.59;100.00;103122.06;5073739;28;20067;-48
2023/01/22 05:40:53;;;;;;;22.35;13.00;;;;;;;-1.57;100.00;103110.94;5073540;28;20383;-47
2023/01/22 05:43:21;;;;;;;22.75;13.35;;;;;;;-1.53;100.00;103122.16;5074020;28;20562;-46
2023/01/22 05:45:51;;;;;;;22.30;12.98;;;;;;;-1.59;100.00;103122.06;5073803;28;20040;-46
2023/01/22 05:48:19;;;;;;;23.52;12.43;;;;;;;-1.62;100.00;103128.00;5086164;28;20037;-47
2023/01/22 05:50:47;;;;;;;23.50;12.68;;;;;;;-1.60;100.00;103131.47;5073424;28;20564;-48
2023/01/22 05:53:15;;;;;;;22.15;13.25;;;;;;;-1.54;100.00;103131.63;5070488;28;20565;-50
2023/01/22 05:55:43;;;;;;;22.30;13.00;;;;;;;-1.57;100.00;103136.75;5069434;28;20052;-48
2023/01/22 05:58:11;;;;;;;21.73;12.45;;;;;;;-1.54;100.00;103134.22;5072029;28;20395;-51
2023/01/22 06:00:39;;;;;;;24.10;13.25;;;;;;;-1.56;100.00;103124.69;5073618;28;20533;-50
2023/01/22 06:03:08;;;;;;;21.73;13.07;;;;;;;-1.52;100.00;103135.97;5073211;28;20136;-52
2023/01/22 06:05:37;;;;;;;24.90;12.77;;;;;;;-1.50;100.00;103131.69;5073669;28;20056;-52
2023/01/22 06:08:05;;;;;;;20.80;11.43;;;;;;;-1.34;100.00;103126.03;5069100;28;20045;-50
2023/01/22 06:10:33;;;;;;;23.83;12.75;;;;;;;-1.46;100.00;103130.91;5069283;28;20044;-51
2023/01/22 06:13:02;;;;;;;19.27;12.02;;;;;;;-1.45;100.00;103125.78;5072823;28;20086;-47
2023/01/22 06:15:30;;;;;;;19.00;12.05;;;;;;;-1.44;100.00;103131.84;5073038;28;20049;-50
2023/01/22 06:18:00;;;;;;;19.90;12.13;;;;;;;-1.47;100.00;103127.47;5072405;28;20044;-51
2023/01/22 06:20:30;;;;;;;23.02;12.25;;;;;;;-1.51;100.00;103133.41;5069874;28;20037;-50
2023/01/22 06:22:58;;;;;;;21.33;12.20;;;;;;;-1.46;100.00;103129.22;5082654;28;20472;-50
2023/01/22 06:25:26;;;;;;;19.92;12.23;;;;;;;-1.47;100.00;103126.59;5092200;28;20044;-49
2023/01/22 06:27:54;;;;;;;17.67;11.05;;;;;;;-1.48;100.00;103130.03;5092205;28;20032;-48
2023/01/22 06:30:22;;;;;;;18.10;11.77;;;;;;;-1.50;100.00;103121.38;5092267;28;20056;-50
2023/01/22 06:32:52;;;;;;;18.55;12.07;;;;;;;-1.49;100.00;103120.53;5092612;28;20097;-51
2023/01/22 06:35:20;;;;;;;20.02;12.77;;;;;;;-1.51;100.00;103120.50;5092934;28;20458;-49
2023/01/22 06:37:49;;;;;;;19.83;12.15;;;;;;;-1.50;100.00;103116.22;5089737;28;20563;-50
2023/01/22 06:40:18;;;;;;;19.00;11.75;;;;;;;-1.47;100.00;103121.44;5087972;28;20040;-48
2023/01/22 06:42:46;;;;;;;20.77;12.05;;;;;;;-1.45;100.00;103128.38;5084636;28;20040;-49
2023/01/22 06:45:15;;;;;;;22.00;11.00;;;;;;;-1.49;100.00;103128.28;5090021;28;20511;-48
2023/01/22 06:47:43;;;;;;;18.05;11.30;;;;;;;-1.51;100.00;103129.94;5079959;28;20044;-53
2023/01/22 06:50:12;;;;;;;21.02;11.18;;;;;;;-1.51;100.00;103125.66;5082909;28;20465;-50
2023/01/22 06:52:40;;;;;;;17.38;11.35;;;;;;;-1.52;100.00;103117.91;5091209;28;20054;-48
2023/01/22 06:55:10;;;;;;;18.58;11.38;;;;;;;-1.50;100.00;103123.94;5091525;28;20048;-50
2023/01/22 06:57:38;;;;;;;18.17;10.68;;;;;;;-1.40;100.00;103123.31;5089087;28;20048;-47
2023/01/22 07:00:09;;;;;;;17.38;10.55;;;;;;;-1.38;100.00;103124.22;5090921;28;20106;-51
2023/01/22 07:02:38;;;;;;;20.25;10.07;;;;;;;-1.41;100.00;103129.31;5092090;28;20052;-49
2023/01/22 07:05:06;;;;;;;17.55;10.15;;;;;;;-1.43;100.00;103138.72;5091903;28;20116;-51
2023/01/22 07:07:34;;;;;;;16.15;9.73;;;;;;;-1.43;100.00;103129.28;5091824;28;20067;-51
2023/01/22 07:10:02;;;;;;;19.02;10.43;;;;;;;-1.41;100.00;103132.75;5092337;28;20127;-52
2023/01/22 07:12:31;;;;;;;15.82;10.02;;;;;;;-1.36;100.00;103138.03;5092289;28;20048;-50
2023/01/22 07:15:00;;;;;;;15.40;9.15;;;;;;;-1.42;100.00;103140.47;5092446;28;20044;-53
2023/01/22 07:17:28;;;;;;;15.93;9.40;;;;;;;-1.45;100.00;103138.69;5092213;28;20032;-52
2023/01/22 07:19:56;;;;;;;16.77;9.18;;;;;;;-1.42;100.00;103140.47;5092271;28;20356;-51
2023/01/22 07:22:24;;;;;;;16.13;8.68;;;;;;;-1.43;100.00;103142.19;5091707;28;20462;-49
2023/01/22 07:24:52;;;;;;;16.77;9.23;;;;;;;-1.42;100.00;103145.63;5091977;28;20079;-51
2023/01/22 07:27:20;;;;;;;15.43;8.55;;;;;;;-1.42;100.00;103148.22;5091974;28;20056;-49
2023/01/22 07:29:50;;;;;;;14.85;8.60;;;;;;;-1.46;100.00;103149.88;5088273;28;20052;-50
2023/01/22 07:32:18;;;;;;;15.70;8.65;;;;;;;-1.47;100.00;103137.81;5071669;28;20075;-48
2023/01/22 07:34:46;;;;;;;15.75;8.95;;;;;;;-1.46;100.00;103143.81;5094199;28;20048;-49
2023/01/22 07:37:14;;;;;;;12.98;7.82;;;;;;;-1.44;100.00;103137.00;5096502;28;20040;-47
2023/01/22 07:39:42;;;;;;;16.70;9.00;;;;;;;-1.43;100.00;103144.78;5096208;28;20379;-51
2023/01/22 07:42:13;;;;;;;15.48;8.80;;;;;;;-1.45;100.00;103141.28;5094926;28;20044;-50
2023/01/22 07:44:41;;;;;;;14.18;8.20;;;;;;;-1.42;100.00;103151.69;5075785;28;20044;-50
2023/01/22 07:47:10;;;;;;;15.02;8.23;;;;;;;-1.44;100.00;103142.16;5072236;28;20048;-51
2023/01/22 07:49:38;;;;;;;20.90;8.88;;;;;;;-1.47;100.00;103145.56;5088753;28;20036;-47
2023/01/22 07:52:07;;;;;;;14.13;7.93;;;;;;;-1.47;100.00;103149.81;5091841;28;20073;-49
2023/01/22 07:54:36;;;;;;;15.70;8.65;;;;;;;-1.48;100.00;103146.38;5095302;28;20047;-51
2023/01/22 07:57:04;;;;;;;14.43;8.20;;;;;;;-1.49;100.00;103151.50;5093401;28;20040;-47
2023/01/22 07:59:32;;;;;;;13.45;8.13;;;;;;;-1.41;100.00;103155.13;5080900;28;20037;-49
2023/01/22 08:02:00;;;;;;;13.43;8.25;;;;;;;-1.43;100.00;103165.44;5093589;28;20048;-48
2023/01/22 08:04:32;;;;;;;16.42;8.95;;;;;;;-1.44;100.00;103166.25;5088516;28;20082;-48
2023/01/22 08:07:00;;;;;;;14.77;8.77;;;;;;;-1.41;100.00;103173.22;5092544;28;20127;-50
2023/01/22 08:09:28;;;;;;;18.13;9.48;;;;;;;-1.46;100.00;103165.38;5083935;28;20497;-49
2023/01/22 08:11:56;;;;;;;16.92;9.75;;;;;;;-1.42;100.00;103161.13;5075212;28;20048;-52
2023/01/22 08:14:24;;;;;;;14.15;8.80;;;;;;;-1.34;100.00;103157.00;5084039;28;20105;-51
2023/01/22 08:16:52;;;;;;;14.93;8.95;;;;;;;-1.33;100.00;103153.59;5095299;28;20055;-48
2023/01/22 08:19:20;;;;;;;14.52;8.85;;;;;;;-1.33;100.00;103161.34;5095140;28;20068;-51
2023/01/22 08:21:50;;;;;;;13.35;8.73;;;;;;;-1.31;100.00;103169.09;5088104;28;20414;-49
2023/01/22 08:24:18;;;;;;;16.45;10.20;;;;;;;-1.31;100.00;103167.41;5074961;28;20135;-50
2023/01/22 08:26:46;;;;;;;16.05;9.63;;;;;;;-1.28;100.00;103169.16;5075220;28;20503;-51
2023/01/22 08:29:14;;;;;;;15.23;9.82;;;;;;;-1.16;100.00;103174.59;5074935;28;20044;-53
2023/01/22 08:31:42;;;;;;;17.65;9.68;;;;;;;-1.23;100.00;103171.03;5072641;28;20071;-54
2023/01/22 08:34:10;;;;;;;15.73;9.18;;;;;;;-1.24;100.00;103171.88;5069374;28;20122;-51
2023/01/22 08:36:39;;;;;;;15.45;8.88;;;;;;;-1.20;100.00;103163.34;5074390;28;20044;-51
2023/01/22 08:39:09;;;;;;;14.80;9.88;;;;;;;-1.19;100.00;103171.94;5073290;28;20032;-51
2023/01/22 08:41:37;;;;;;;17.15;9.80;;;;;;;-1.18;100.00;103175.44;5071125;28;20055;-51
2023/01/22 08:44:11;;;;;;;14.27;9.70;;;;;;;-1.18;100.00;103172.84;5088623;28;20044;-51
2023/01/22 08:46:40;;;;;;;17.67;9.23;;;;;;;-1.12;100.00;103172.94;5094414;28;20503;-48
2023/01/22 08:49:08;;;;;;;15.13;9.32;;;;;;;-1.17;100.00;103167.69;5078083;28;20076;-50
2023/01/22 08:51:36;;;;;;;13.63;9.10;;;;;;;-1.16;100.00;103176.31;5080601;28;20036;-51
2023/01/22 08:54:04;;;;;;;14.90;9.00;;;;;;;-1.15;100.00;103175.47;5094549;28;20072;-50
2023/01/22 08:56:34;;;;;;;14.90;8.57;;;;;;;-1.10;100.00;103171.28;5094810;28;20044;-49
2023/01/22 08:59:05;;;;;;;13.70;9.20;;;;;;;-1.09;100.00;103176.47;5074559;28;20044;-52
2023/01/22 09:01:34;;;;;;;12.95;8.63;;;;;;;-1.07;100.00;103185.13;5070030;28;20147;-49
2023/01/22 09:04:02;;;;;;;13.45;8.40;;;;;;;-1.04;100.00;103173.97;5074593;28;20517;-48
2023/01/22 09:06:30;;;;;;;14.48;8.73;;;;;;;-1.05;100.00;103188.63;5074383;28;20088;-49
2023/01/22 09:09:01;;;;;;;14.13;9.05;;;;;;;-1.04;100.00;103192.06;5074228;28;20541;-48
2023/01/22 09:11:30;;;;;;;12.88;8.93;;;;;;;-1.03;100.00;103175.72;5074249;28;20044;-47
2023/01/22 09:13:59;;;;;;;12.95;8.32;;;;;;;-1.02;100.00;103182.66;5071133;28;20084;-50
2023/01/22 09:16:28;;;;;;;16.42;8.77;;;;;;;-0.96;100.00;103187.06;5069802;28;20561;-50
2023/01/22 09:18:56;;;;;;;12.85;8.88;;;;;;;-0.98;100.00;103175.81;5074421;28;20468;-48
2023/01/22 09:21:24;;;;;;;13.77;8.85;;;;;;;-0.96;100.00;103180.19;5074017;28;20052;-48
2023/01/22 09:23:53;;;;;;;11.85;8.05;;;;;;;-0.92;100.00;103176.81;5072936;28;20055;-48
2023/01/22 09:26:21;;;;;;;12.68;8.60;;;;;;;-0.91;100.00;103175.13;5070560;28;20059;-49
2023/01/22 09:28:49;;;;;;;13.32;8.25;;;;;;;-0.86;100.00;103174.38;5076491;28;20052;-48
2023/01/22 09:31:19;;;;;;;14.32;7.90;;;;;;;-0.87;100.00;103174.34;5093442;28;20040;-49
2023/01/22 09:33:47;;;;;;;11.65;7.60;;;;;;;-0.84;100.00;103184.72;5085910;28;20547;-50
2023/01/22 09:36:16;;;;;;;13.75;7.80;;;;;;;-0.84;100.00;103183.88;5071456;28;20422;-50
2023/01/22 09:38:44;;;;;;;12.70;7.63;;;;;;;-0.81;100.00;103187.38;5070305;28;20044;-51
2023/01/22 09:41:19;;;;;;;12.93;8.02;;;;;;;-0.86;100.00;103189.88;5072416;28;20116;-50
2023/01/22 09:43:51;;;;;;;15.98;8.32;;;;;;;-0.84;100.00;103184.72;5073680;28;20051;-52
2023/01/22 09:46:25;;;;;;;12.95;8.73;;;;;;;-0.84;100.00;103182.16;5073567;28;20055;-49
2023/01/22 09:48:57;;;;;;;14.40;7.88;;;;;;;-0.78;100.00;103192.59;5073534;28;20041;-50
2023/01/22 09:51:26;;;;;;;14.07;8.57;;;;;;;-0.75;100.00;103191.78;5089253;28;20479;-52
2023/01/22 09:53:58;;;;;;;12.60;7.93;;;;;;;-0.70;100.00;103201.34;5074961;28;20440;-50
2023/01/22 09:56:33;;;;;;;13.73;6.55;;;;;;;-0.72;100.00;103197.03;5072223;28;20075;-47
2023/01/22 09:59:04;;;;;;;14.45;8.30;;;;;;;-0.70;100.00;103197.91;5078425;28;20045;-50
2023/01/22 10:01:35;;;;;;;14.40;8.20;;;;;;;-0.70;100.00;103203.09;5082216;28;20041;-51
2023/01/22 10:04:13;;;;;;;15.13;8.30;;;;;;;-0.70;100.00;103201.34;5083252;28;20514;-49
2023/01/22 10:06:42;;;;;;;12.68;8.07;;;;;;;-0.66;100.00;103204.88;5085275;28;20044;-49
2023/01/22 10:09:15;;;;;;;12.77;7.53;;;;;;;-0.63;100.00;103199.78;5091237;28;20420;-51
2023/01/22 10:11:49;;;;;;;13.18;7.65;;;;;;;-0.62;100.00;103204.09;5071451;28;20147;-48
2023/01/22 10:14:20;;;;;;;13.63;8.02;;;;;;;-0.60;100.00;103206.72;5085002;28;20044;-52
2023/01/22 10:16:49;;;;;;;12.98;7.95;;;;;;;-0.51;100.00;103202.59;5092977;28;20075;-47
2023/01/22 10:19:23;;;;;;;18.27;8.27;;;;;;;-0.48;100.00;103208.69;5093198;28;20127;-51
2023/01/22 10:21:58;;;;;;;12.35;7.68;;;;;;;-0.41;100.00;103203.66;5087678;28;20483;-52
2023/01/22 10:24:27;;;;;;;13.43;7.18;;;;;;;-0.32;100.00;103202.09;5077142;28;20407;-48
2023/01/22 10:26:57;;;;;;;13.82;7.93;;;;;;;-0.37;100.00;103196.81;5072553;28;20084;-51
2023/01/22 10:29:31;;;;;;;13.07;7.88;;;;;;;-0.38;100.00;103205.44;5075855;28;20503;-50
2023/01/22 10:32:05;;;;;;;12.55;7.47;;;;;;;-0.30;100.00;103200.38;5089213;28;20502;-47
2023/01/22 10:34:35;;;;;;;12.82;7.60;;;;;;;-0.29;100.00;103195.22;5092830;28;20048;-48
2023/01/22 10:37:13;;;;;;;11.57;7.55;;;;;;;-0.27;100.00;103190.06;5092723;28;20649;-46
2023/01/22 10:39:42;;;;;;;12.23;7.38;;;;;;;-0.14;100.00;103176.50;5091661;28;20483;-47
2023/01/22 10:42:16;;;;;;;13.65;7.57;;;;;;;-0.20;100.00;103177.28;5078093;28;20036;-47
2023/01/22 10:44:45;;;;;;;13.80;7.57;;;;;;;-0.23;100.00;103185.00;5091273;28;20058;-47
2023/01/22 10:47:19;;;;;;;11.32;7.20;;;;;;;-0.18;100.00;103185.06;5074004;28;20040;-48
2023/01/22 10:49:48;;;;;;;14.48;8.10;;;;;;;-0.17;100.00;103190.25;5070370;28;20147;-51
2023/01/22 10:52:22;;;;;;;14.25;8.18;;;;;;;-0.13;100.00;103186.03;5074571;28;20036;-51
2023/01/22 10:54:55;;;;;;;13.90;7.97;;;;;;;-0.13;100.00;103185.16;5089983;28;20433;-52
2023/01/22 10:57:26;;;;;;;;;;;;;;;-0.11;100.00;103186.03;5093400;28;20048;-52
2023/01/22 11:00:04;;;;;;;11.00;7.18;;;;;;;-0.01;100.00;103188.81;5092494;28;19970;-51
2023/01/22 11:02:35;;;;;;;12.82;7.78;;;;;;;-0.09;100.00;103184.38;5087652;28;20150;-52
2023/01/22 11:05:14;;;;;;;12.85;7.63;;;;;;;-0.08;100.00;103186.97;5088505;28;20122;-50
2023/01/22 11:07:44;;;;;;;12.80;7.72;;;;;;;-0.07;100.00;103178.38;5076255;28;20521;-48
2023/01/22 11:10:18;;;;;;;16.40;8.55;;;;;;;0.08;100.00;103180.34;5092596;28;20552;-51
2023/01/22 11:12:51;;;;;;;13.43;7.85;;;;;;;-0.06;100.00;103174.06;5080445;28;20044;-51
2023/01/22 11:15:25;;;;;;;17.05;7.45;;;;;;;-0.09;100.00;103172.28;5072041;28;20127;-52
2023/01/22 11:17:57;;;;;;;14.73;8.38;;;;;;;-0.08;100.00;103174.03;5088959;28;20044;-50
2023/01/22 11:20:28;;;;;;;19.58;7.90;;;;;;;0.03;100.00;103173.34;5089050;28;20066;-52
2023/01/22 11:23:11;;;;;;;14.68;9.15;;;;;;;0.05;100.00;103172.53;5087110;28;20369;-51